Hawi, Hawaii
Current Conditions -  °F | °C
As of 8:56 PM on Thursday 23 Oct 2014 (Local Time) from PHSF Reporting Station
Clear Clear  
Wind Chill: 12°   Ceiling: Unl
Heat Index: 12°   Visibility: 10mi
Dew Point:   Wind: 7mph
Humidity: 77%   Direction: 120°ESE
Pressure: 30.38"   Gusts: 17mph
Location:  20.24°N, 155.82°W
Report Text: PHSF 240656Z AUTO 12006G15KT 10SM CLR 12/08 A3038 RMK AO2 SLP175 T01180079 $
Loading
Personal Weather Stations






























Interactive Weather Map
Tropical Storm Tracking
New forecast layout! Learn more

10-Day Weather Forecast

Advertisements
Track Severe Weather on mobile